createdAt,value
2023-03-22T00:00:15.488Z,82.80
2023-03-22T00:02:42.518Z,82.80
2023-03-22T00:05:09.914Z,82.70
2023-03-22T00:07:37.838Z,82.70
2023-03-22T00:10:06.028Z,82.60
2023-03-22T00:12:32.904Z,82.60
2023-03-22T00:15:00.409Z,82.60
2023-03-22T00:17:27.334Z,82.60
2023-03-22T00:19:58.505Z,82.40
2023-03-22T00:22:26.289Z,82.40
2023-03-22T00:24:53.247Z,82.40
2023-03-22T00:27:20.276Z,82.30
2023-03-22T00:29:47.537Z,82.30
2023-03-22T00:32:14.483Z,82.30
2023-03-22T00:34:41.618Z,82.20
2023-03-22T00:37:08.556Z,82.20
2023-03-22T00:39:37.029Z,82.20
2023-03-22T00:42:05.355Z,82.10
2023-03-22T00:44:32.580Z,82.10
2023-03-22T00:46:59.507Z,82.10
2023-03-22T00:49:27.483Z,82.10
2023-03-22T00:51:55.074Z,82.10
2023-03-22T00:54:22.241Z,82.10
2023-03-22T00:56:50.051Z,82.10
2023-03-22T00:59:17.323Z,82.20
2023-03-22T01:01:44.343Z,82.20
2023-03-22T01:04:15.641Z,82.30
2023-03-22T01:06:42.645Z,82.20
2023-03-22T01:09:15.040Z,82.20
2023-03-22T01:11:43.492Z,82.30
2023-03-22T01:14:10.552Z,82.30
2023-03-22T01:16:37.914Z,82.30
2023-03-22T01:19:04.990Z,82.30
2023-03-22T01:21:31.952Z,82.40
2023-03-22T01:23:58.951Z,82.40
2023-03-22T01:26:25.903Z,82.50
2023-03-22T01:28:52.942Z,82.50
2023-03-22T01:31:23.659Z,82.50
2023-03-22T01:33:51.012Z,82.50
2023-03-22T01:36:18.071Z,82.60
2023-03-22T01:38:45.173Z,82.70
2023-03-22T01:41:12.106Z,82.70
2023-03-22T01:43:39.198Z,82.80
2023-03-22T01:46:06.496Z,82.80
2023-03-22T01:48:46.457Z,82.80
2023-03-22T01:51:20.625Z,82.90
2023-03-22T01:54:01.174Z,82.90
2023-03-22T01:56:30.515Z,82.80
2023-03-22T01:58:57.469Z,82.80
2023-03-22T02:01:24.721Z,82.80
2023-03-22T02:04:07.240Z,82.80
2023-03-22T02:06:38.453Z,82.80
2023-03-22T02:09:09.390Z,82.80
2023-03-22T02:11:43.806Z,82.80
2023-03-22T02:14:48.425Z,82.70
2023-03-22T02:17:31.326Z,82.80
2023-03-22T02:20:28.305Z,82.80
2023-03-22T02:23:04.256Z,82.80
2023-03-22T02:25:41.375Z,82.80
2023-03-22T02:28:26.410Z,82.90
2023-03-22T02:31:12.687Z,83.00
2023-03-22T02:34:01.267Z,83.00
2023-03-22T02:36:51.649Z,83.20
2023-03-22T02:39:37.230Z,83.40
2023-03-22T02:42:22.509Z,83.40
2023-03-22T02:44:55.743Z,83.50
2023-03-22T02:47:42.300Z,83.70
2023-03-22T02:50:22.130Z,83.80
2023-03-22T02:53:01.389Z,83.90
2023-03-22T02:55:34.999Z,83.90
2023-03-22T02:58:07.941Z,84.00
2023-03-22T03:00:35.165Z,83.90
2023-03-22T03:03:11.600Z,83.90
2023-03-22T03:05:40.233Z,84.00
2023-03-22T03:08:07.225Z,84.00
2023-03-22T03:10:36.878Z,84.00
2023-03-22T03:13:03.853Z,84.50
2023-03-22T03:15:31.246Z,84.00
2023-03-22T03:18:18.434Z,84.00
2023-03-22T03:21:02.727Z,84.00
2023-03-22T03:24:09.359Z,84.00
2023-03-22T03:26:50.940Z,84.10
2023-03-22T03:29:52.095Z,84.10
2023-03-22T03:32:25.741Z,84.10
2023-03-22T03:35:23.158Z,84.20
2023-03-22T03:37:52.986Z,84.30
2023-03-22T03:40:31.476Z,84.30
2023-03-22T03:42:59.213Z,84.50
2023-03-22T03:45:26.351Z,84.70
2023-03-22T03:47:57.164Z,84.80
2023-03-22T03:50:25.206Z,84.90
2023-03-22T03:52:54.499Z,85.00
2023-03-22T03:55:21.897Z,85.00
2023-03-22T03:57:49.027Z,85.00
2023-03-22T04:00:17.097Z,85.10
2023-03-22T04:02:44.381Z,85.20
2023-03-22T04:05:11.914Z,85.30
2023-03-22T04:07:38.846Z,85.30
2023-03-22T04:10:06.687Z,85.40
2023-03-22T04:12:33.635Z,85.50
2023-03-22T04:15:00.601Z,85.70
2023-03-22T04:17:29.393Z,85.70
2023-03-22T04:19:56.812Z,85.70
2023-03-22T04:22:24.310Z,85.80
2023-03-22T04:24:51.369Z,85.90
2023-03-22T04:27:18.605Z,85.90
2023-03-22T04:29:48.809Z,86.00
2023-03-22T04:32:19.173Z,86.10
2023-03-22T04:34:46.612Z,86.20
2023-03-22T04:37:14.488Z,86.30
2023-03-22T04:39:41.843Z,86.40
2023-03-22T04:42:09.065Z,86.50
2023-03-22T04:44:38.504Z,86.60
2023-03-22T04:47:05.608Z,86.70
2023-03-22T04:49:32.779Z,86.70
2023-03-22T04:51:59.845Z,86.70
2023-03-22T04:54:26.927Z,86.80
2023-03-22T04:56:53.981Z,87.40
2023-03-22T04:59:21.085Z,86.90
2023-03-22T05:01:48.751Z,87.00
2023-03-22T05:04:16.210Z,87.10
2023-03-22T05:06:43.338Z,87.20
2023-03-22T05:09:11.696Z,87.30
2023-03-22T05:11:38.870Z,87.30
2023-03-22T05:14:05.894Z,87.40
2023-03-22T05:16:33.310Z,87.50
2023-03-22T05:19:02.519Z,87.60
2023-03-22T05:21:29.968Z,87.70
2023-03-22T05:23:57.433Z,87.70
2023-03-22T05:26:27.888Z,87.80
2023-03-22T05:28:55.465Z,87.80
2023-03-22T05:31:22.660Z,87.80
2023-03-22T05:33:50.781Z,87.90
2023-03-22T05:36:18.596Z,88.00
2023-03-22T05:38:46.768Z,88.00
2023-03-22T05:41:14.548Z,88.10
2023-03-22T05:43:41.589Z,88.10
2023-03-22T05:46:09.124Z,88.10
2023-03-22T05:48:37.974Z,88.20
2023-03-22T05:51:09.171Z,88.20
2023-03-22T05:53:36.487Z,88.30
2023-03-22T05:56:03.623Z,88.30
2023-03-22T05:58:31.113Z,88.40
2023-03-22T06:01:01.156Z,88.40
2023-03-22T06:03:28.708Z,88.50
2023-03-22T06:05:55.909Z,88.50
2023-03-22T06:08:26.383Z,88.60
2023-03-22T06:10:54.278Z,88.60
2023-03-22T06:13:23.658Z,88.60
2023-03-22T06:15:50.717Z,88.60
2023-03-22T06:18:17.894Z,88.70
2023-03-22T06:20:44.924Z,88.70
2023-03-22T06:23:11.948Z,88.70
2023-03-22T06:25:39.156Z,88.70
2023-03-22T06:28:08.585Z,88.80
2023-03-22T06:30:36.132Z,88.90
2023-03-22T06:33:06.293Z,88.90
2023-03-22T06:35:41.167Z,88.90
2023-03-22T06:38:08.459Z,89.00
2023-03-22T06:40:38.305Z,89.10
2023-03-22T06:43:08.280Z,89.10
2023-03-22T06:45:38.627Z,89.20
2023-03-22T06:48:06.360Z,89.20
2023-03-22T06:50:34.297Z,89.20
2023-03-22T06:53:01.464Z,89.20
2023-03-22T06:55:28.895Z,89.20
2023-03-22T06:57:55.835Z,89.30
2023-03-22T07:00:23.006Z,89.30
2023-03-22T07:02:52.636Z,89.40
2023-03-22T07:05:20.164Z,89.40
2023-03-22T07:08:37.482Z,89.50
2023-03-22T07:11:05.067Z,89.40
2023-03-22T07:13:32.319Z,89.30
2023-03-22T07:16:02.880Z,89.30
2023-03-22T07:18:30.646Z,89.20
2023-03-22T07:20:57.706Z,89.30
2023-03-22T07:23:24.675Z,89.20
2023-03-22T07:25:52.248Z,89.30
2023-03-22T07:28:19.286Z,89.20
2023-03-22T07:30:46.486Z,89.30
2023-03-22T07:33:13.428Z,89.20
2023-03-22T07:35:40.868Z,89.30
2023-03-22T07:38:08.081Z,89.20
2023-03-22T07:40:35.086Z,89.30
2023-03-22T07:43:02.186Z,89.30
2023-03-22T07:45:29.189Z,89.30
2023-03-22T07:47:58.476Z,89.30
2023-03-22T07:50:25.688Z,89.40
2023-03-22T07:52:52.695Z,89.40
2023-03-22T07:58:24.351Z,89.30
2023-03-22T08:00:51.582Z,89.30
2023-03-22T08:03:18.918Z,89.20
2023-03-22T08:05:45.913Z,89.20
2023-03-22T08:08:16.144Z,89.20
2023-03-22T08:10:43.232Z,89.30
2023-03-22T08:13:10.741Z,89.30
2023-03-22T08:15:46.943Z,89.30
2023-03-22T08:18:14.190Z,89.20
2023-03-22T08:20:42.279Z,89.20
2023-03-22T08:23:14.571Z,89.20
2023-03-22T08:25:46.869Z,89.20
2023-03-22T08:28:16.011Z,89.20
2023-03-22T08:30:46.892Z,89.20
2023-03-22T08:33:16.204Z,89.10
2023-03-22T08:35:43.310Z,89.20
2023-03-22T08:38:15.372Z,89.20
2023-03-22T08:40:48.566Z,89.20
2023-03-22T08:43:15.692Z,89.20
2023-03-22T08:45:43.285Z,89.10
2023-03-22T08:48:10.856Z,89.10
2023-03-22T08:50:38.266Z,89.00
2023-03-22T08:53:05.845Z,89.00
2023-03-22T08:55:37.363Z,88.90
2023-03-22T08:58:13.359Z,88.80
2023-03-22T09:00:48.532Z,88.70
2023-03-22T09:03:16.479Z,88.70
2023-03-22T09:05:43.709Z,88.70
2023-03-22T09:08:18.423Z,88.60
2023-03-22T09:10:51.463Z,88.50
2023-03-22T09:13:18.793Z,88.50
2023-03-22T09:15:46.039Z,88.50
2023-03-22T09:18:17.711Z,88.50
2023-03-22T09:20:46.008Z,88.60
2023-03-22T09:23:15.632Z,88.70
2023-03-22T09:25:46.301Z,88.70
2023-03-22T09:28:13.527Z,89.10
2023-03-22T09:30:40.926Z,88.60
2023-03-22T09:33:08.288Z,88.70
2023-03-22T09:35:51.179Z,88.70
2023-03-22T09:38:18.216Z,88.60
2023-03-22T09:41:00.895Z,88.40
2023-03-22T09:44:07.714Z,88.40
2023-03-22T09:46:37.136Z,88.30
2023-03-22T09:49:12.366Z,88.20
2023-03-22T09:51:49.904Z,88.60
2023-03-22T09:54:21.611Z,88.00
2023-03-22T09:57:08.412Z,88.00
2023-03-22T10:00:11.937Z,87.80
2023-03-22T10:02:50.193Z,87.60
2023-03-22T10:05:39.771Z,87.50
2023-03-22T10:08:16.196Z,87.30
2023-03-22T10:10:43.442Z,87.10
2023-03-22T10:13:21.976Z,86.90
2023-03-22T10:15:59.246Z,86.80
2023-03-22T10:18:30.347Z,86.70
2023-03-22T10:21:00.220Z,86.80
2023-03-22T10:23:50.490Z,86.70
2023-03-22T10:30:04.480Z,86.50
2023-03-22T10:32:56.410Z,86.40
2023-03-22T10:35:24.598Z,86.30
2023-03-22T10:37:51.743Z,86.10
2023-03-22T10:40:24.539Z,86.00
2023-03-22T10:42:56.591Z,85.90
2023-03-22T10:45:24.818Z,85.90
2023-03-22T10:48:10.816Z,85.90
2023-03-22T10:50:39.827Z,85.80
2023-03-22T10:53:27.039Z,85.80
2023-03-22T10:55:54.302Z,85.80
2023-03-22T10:58:24.433Z,85.90
2023-03-22T11:00:53.529Z,85.90
2023-03-22T11:03:39.274Z,85.90
2023-03-22T11:06:17.551Z,86.00
2023-03-22T11:09:06.600Z,86.10
2023-03-22T11:11:46.550Z,86.30
2023-03-22T11:14:20.076Z,86.50
2023-03-22T11:17:17.242Z,86.50
2023-03-22T11:20:07.796Z,87.00
2023-03-22T11:22:41.465Z,86.40
2023-03-22T11:25:23.054Z,86.20
2023-03-22T11:28:04.992Z,86.10
2023-03-22T11:30:33.047Z,86.00
2023-03-22T11:33:09.369Z,85.80
2023-03-22T11:35:40.148Z,85.60
2023-03-22T11:38:10.084Z,85.30
2023-03-22T11:40:37.309Z,85.20
2023-03-22T11:43:32.531Z,85.00
2023-03-22T11:45:59.962Z,84.70
2023-03-22T11:48:29.197Z,84.50
2023-03-22T11:51:03.951Z,84.40
2023-03-22T11:53:32.756Z,84.50
2023-03-22T11:56:00.162Z,84.70
2023-03-22T11:58:29.347Z,84.80
2023-03-22T12:01:01.194Z,84.70
2023-03-22T12:03:37.593Z,84.60
2023-03-22T12:06:21.031Z,84.60
2023-03-22T12:09:14.714Z,84.40
2023-03-22T12:11:44.194Z,84.20
2023-03-22T12:14:35.264Z,84.20
2023-03-22T12:17:11.043Z,83.90
2023-03-22T12:20:29.087Z,83.90
2023-03-22T12:22:58.560Z,83.80
2023-03-22T12:25:33.414Z,83.80
2023-03-22T12:28:04.346Z,83.60
2023-03-22T12:30:34.281Z,83.50
2023-03-22T12:33:08.750Z,83.30
2023-03-22T12:35:37.105Z,83.30
2023-03-22T12:38:19.078Z,83.10
2023-03-22T12:40:50.609Z,83.00
2023-03-22T12:43:37.237Z,83.00
2023-03-22T12:46:06.944Z,82.90
2023-03-22T12:48:41.180Z,82.60
2023-03-22T12:51:09.775Z,82.70
2023-03-22T12:53:45.512Z,82.40
2023-03-22T12:56:14.766Z,82.10
2023-03-22T12:58:45.225Z,82.10
2023-03-22T13:01:36.790Z,81.90
2023-03-22T13:04:26.834Z,81.70
2023-03-22T13:06:54.702Z,82.00
2023-03-22T13:09:44.779Z,81.50
2023-03-22T13:12:18.194Z,81.30
2023-03-22T13:14:51.478Z,81.20
2023-03-22T13:17:25.190Z,81.20
2023-03-22T13:19:53.893Z,81.10
2023-03-22T13:22:41.964Z,81.20
2023-03-22T13:25:17.184Z,81.20
2023-03-22T13:27:57.090Z,81.10
2023-03-22T13:30:44.318Z,80.90
2023-03-22T13:33:11.473Z,80.80
2023-03-22T13:35:44.624Z,80.50
2023-03-22T13:38:24.480Z,80.50
2023-03-22T13:41:05.937Z,80.50
2023-03-22T13:43:37.003Z,80.50
2023-03-22T13:46:17.953Z,80.40
2023-03-22T13:48:45.094Z,80.30
2023-03-22T13:51:23.661Z,80.10
2023-03-22T13:53:53.638Z,80.00
2023-03-22T13:56:38.390Z,80.00
2023-03-22T13:59:05.404Z,79.70
2023-03-22T14:01:36.555Z,79.70
2023-03-22T14:04:12.412Z,79.80
2023-03-22T14:07:11.126Z,79.70
2023-03-22T14:09:54.895Z,79.60
2023-03-22T14:12:31.592Z,79.70
2023-03-22T14:15:06.000Z,79.90
2023-03-22T14:17:38.458Z,80.00
2023-03-22T14:20:10.798Z,80.00
